createdAt,value
2019-05-12T00:00:43.437Z,55.60
2019-05-12T00:03:12.723Z,55.80
2019-05-12T00:05:42.065Z,55.90
2019-05-12T00:08:11.319Z,55.90
2019-05-12T00:10:40.579Z,56.20
2019-05-12T00:13:09.838Z,56.40
2019-05-12T00:15:39.163Z,56.50
2019-05-12T00:18:09.238Z,56.60
2019-05-12T00:20:38.645Z,56.60
2019-05-12T00:23:24.039Z,56.90
2019-05-12T00:25:40.406Z,57.20
2019-05-12T00:28:09.781Z,57.50
2019-05-12T00:30:42.468Z,57.60
2019-05-12T00:33:11.818Z,57.90
2019-05-12T00:35:41.105Z,58.20
2019-05-12T00:38:10.466Z,58.20
2019-05-12T00:40:39.904Z,58.40
2019-05-12T00:43:09.507Z,59.20
2019-05-12T00:45:39.090Z,58.70
2019-05-12T00:48:09.463Z,59.00
2019-05-12T00:50:38.904Z,59.10
2019-05-12T00:53:09.129Z,59.20
2019-05-12T00:55:38.848Z,59.40
2019-05-12T00:58:08.826Z,59.60
2019-05-12T01:00:40.541Z,59.80
2019-05-12T01:03:09.474Z,60.00
2019-05-12T01:05:38.871Z,60.10
2019-05-12T01:08:09.501Z,60.40
2019-05-12T01:10:42.198Z,60.40
2019-05-12T01:13:11.866Z,60.80
2019-05-12T01:15:41.474Z,61.20
2019-05-12T01:18:10.953Z,61.50
2019-05-12T01:20:40.629Z,61.80
2019-05-12T01:23:10.057Z,62.10
2019-05-12T01:25:40.026Z,62.40
2019-05-12T01:28:09.925Z,62.70
2019-05-12T01:30:39.638Z,62.90
2019-05-12T01:33:11.744Z,63.20
2019-05-12T01:35:41.252Z,63.40
2019-05-12T01:38:10.834Z,63.80
2019-05-12T01:40:40.421Z,64.10
2019-05-12T01:43:10.014Z,64.30
2019-05-12T01:45:39.519Z,64.60
2019-05-12T01:48:09.494Z,64.70
2019-05-12T01:50:39.302Z,65.70
2019-05-12T01:53:08.686Z,65.20
2019-05-12T01:55:38.809Z,65.30
2019-05-12T01:58:08.292Z,65.30
2019-05-12T02:00:38.975Z,65.50
2019-05-12T02:03:09.483Z,65.60
2019-05-12T02:05:41.503Z,65.80
2019-05-12T02:08:15.534Z,66.00
2019-05-12T02:10:45.196Z,66.10
2019-05-12T02:13:14.805Z,66.20
2019-05-12T02:15:44.233Z,66.40
2019-05-12T02:18:13.795Z,66.40
2019-05-12T02:20:43.330Z,66.60
2019-05-12T02:23:12.897Z,66.50
2019-05-12T02:25:42.526Z,66.60
2019-05-12T02:28:11.826Z,66.40
2019-05-12T02:30:42.028Z,66.60
2019-05-12T02:33:11.495Z,66.60
2019-05-12T02:35:40.777Z,66.80
2019-05-12T02:38:10.011Z,66.80
2019-05-12T02:40:39.105Z,66.90
2019-05-12T02:43:08.402Z,66.90
2019-05-12T02:45:38.215Z,66.90
2019-05-12T02:48:07.575Z,66.80
2019-05-12T02:50:37.974Z,66.90
2019-05-12T02:53:08.022Z,67.00
2019-05-12T02:55:38.118Z,67.20
2019-05-12T02:58:08.671Z,67.60
2019-05-12T03:00:38.810Z,67.60
2019-05-12T03:03:09.786Z,67.70
2019-05-12T03:05:44.258Z,67.90
2019-05-12T03:08:15.270Z,68.00
2019-05-12T03:10:46.502Z,68.10
2019-05-12T03:13:15.964Z,68.40
2019-05-12T03:15:45.652Z,68.50
2019-05-12T03:18:15.105Z,68.50
2019-05-12T03:20:45.591Z,68.80
2019-05-12T03:23:18.939Z,68.90
2019-05-12T03:25:46.795Z,69.10
2019-05-12T03:28:16.493Z,69.30
2019-05-12T03:30:48.669Z,69.30
2019-05-12T03:33:19.060Z,69.60
2019-05-12T03:35:52.835Z,69.70
2019-05-12T03:38:20.088Z,70.00
2019-05-12T03:40:54.929Z,70.40
2019-05-12T03:43:24.319Z,70.80
2019-05-12T03:45:55.822Z,71.00
2019-05-12T03:48:25.455Z,71.10
2019-05-12T03:50:54.895Z,71.50
2019-05-12T03:53:24.623Z,71.70
2019-05-12T03:55:55.358Z,71.80
2019-05-12T03:58:25.638Z,71.70
2019-05-12T04:00:55.416Z,71.60
2019-05-12T04:03:24.979Z,71.90
2019-05-12T04:05:55.351Z,71.90
2019-05-12T04:08:24.859Z,71.80
2019-05-12T04:10:54.914Z,71.50
2019-05-12T04:13:26.503Z,71.20
2019-05-12T04:15:55.821Z,71.20
2019-05-12T04:18:25.100Z,71.20
2019-05-12T04:20:54.975Z,71.00
2019-05-12T04:23:24.886Z,71.00
2019-05-12T04:26:06.579Z,70.80
2019-05-12T04:28:24.832Z,70.80
2019-05-12T04:30:54.698Z,71.00
2019-05-12T04:33:25.658Z,70.50
2019-05-12T04:35:55.657Z,70.70
2019-05-12T04:38:27.255Z,70.80
2019-05-12T04:40:56.587Z,70.40
2019-05-12T04:43:26.543Z,70.40
2019-05-12T04:45:56.006Z,70.50
2019-05-12T04:48:26.009Z,70.50
2019-05-12T04:50:54.928Z,70.20
2019-05-12T04:53:25.317Z,70.40
2019-05-12T04:56:07.551Z,70.10
2019-05-12T04:58:26.486Z,70.20
2019-05-12T05:00:56.048Z,70.30
2019-05-12T05:03:25.648Z,70.10
2019-05-12T05:05:55.127Z,70.40
2019-05-12T05:08:25.074Z,70.50
2019-05-12T05:10:55.050Z,70.40
2019-05-12T05:13:25.137Z,70.60
2019-05-12T05:15:55.042Z,70.60
2019-05-12T05:18:25.166Z,70.60
2019-05-12T05:20:54.843Z,70.50
2019-05-12T05:23:24.575Z,70.40
2019-05-12T05:25:54.849Z,70.70
2019-05-12T05:28:24.430Z,70.70
2019-05-12T05:30:54.010Z,70.80
2019-05-12T05:33:23.955Z,70.40
2019-05-12T05:35:54.302Z,70.50
2019-05-12T05:38:24.258Z,69.90
2019-05-12T05:40:54.194Z,69.40
2019-05-12T05:43:24.240Z,68.90
2019-05-12T05:46:02.274Z,69.30
2019-05-12T05:48:25.655Z,68.70
2019-05-12T05:50:59.927Z,68.10
2019-05-12T05:53:26.474Z,67.90
2019-05-12T05:56:00.078Z,67.50
2019-05-12T05:58:26.707Z,67.80
2019-05-12T06:01:03.118Z,68.40
2019-05-12T06:03:27.934Z,67.70
2019-05-12T06:06:01.343Z,68.00
2019-05-12T06:08:29.115Z,67.30
2019-05-12T06:10:58.535Z,67.80
2019-05-12T06:13:31.789Z,67.40
2019-05-12T06:15:59.104Z,67.80
2019-05-12T06:18:29.181Z,68.50
2019-05-12T06:20:57.719Z,68.30
2019-05-12T06:23:29.091Z,68.40
2019-05-12T06:25:58.558Z,68.10
2019-05-12T06:28:31.161Z,68.90
2019-05-12T06:30:59.129Z,68.40
2019-05-12T06:33:31.445Z,68.40
2019-05-12T06:35:59.419Z,68.10
2019-05-12T06:38:30.962Z,68.10
2019-05-12T06:41:00.062Z,67.90
2019-05-12T06:43:34.028Z,68.20
2019-05-12T06:46:00.830Z,68.20
2019-05-12T06:48:30.571Z,68.10
2019-05-12T06:51:00.101Z,67.30
2019-05-12T06:53:31.113Z,66.00
2019-05-12T06:56:01.500Z,65.60
2019-05-12T06:58:32.075Z,65.60
2019-05-12T07:01:10.182Z,65.60
2019-05-12T07:03:37.009Z,65.50
2019-05-12T07:06:09.197Z,65.30
2019-05-12T07:08:38.485Z,65.00
2019-05-12T07:11:08.022Z,64.60
2019-05-12T07:13:37.740Z,63.90
2019-05-12T07:16:19.151Z,63.80
2019-05-12T07:18:49.118Z,62.70
2019-05-12T07:21:21.037Z,62.50
2019-05-12T07:24:11.687Z,62.00
2019-05-12T07:26:41.427Z,62.40
2019-05-12T07:29:13.311Z,62.70
2019-05-12T07:31:44.130Z,62.20
2019-05-12T07:34:13.788Z,62.60
2019-05-12T07:36:44.266Z,62.20
2019-05-12T07:39:15.229Z,60.30
2019-05-12T07:41:51.010Z,59.20
2019-05-12T07:44:25.112Z,58.60
2019-05-12T07:46:54.219Z,58.90
2019-05-12T07:49:34.513Z,58.50
2019-05-12T07:51:55.247Z,57.30
2019-05-12T07:54:29.371Z,57.30
2019-05-12T07:56:56.079Z,56.30
2019-05-12T07:59:34.175Z,55.60
2019-05-12T08:01:57.087Z,55.20
2019-05-12T08:04:31.722Z,55.60
2019-05-12T08:06:58.164Z,55.20
2019-05-12T08:09:32.513Z,54.40
2019-05-12T08:11:59.959Z,54.90
2019-05-12T08:14:33.054Z,55.60
2019-05-12T08:17:19.328Z,55.80
2019-05-12T08:20:13.328Z,55.90
2019-05-12T08:22:43.813Z,54.20
2019-05-12T08:25:18.463Z,51.90
2019-05-12T08:27:49.425Z,52.70
2019-05-12T08:30:16.046Z,52.30
2019-05-12T08:32:45.345Z,52.60
2019-05-12T08:35:25.527Z,53.20
2019-05-12T08:37:50.356Z,52.30
2019-05-12T08:40:19.849Z,50.60
2019-05-12T08:42:49.268Z,51.30
2019-05-12T08:45:27.454Z,52.30
2019-05-12T08:47:50.299Z,52.70
2019-05-12T08:50:25.587Z,50.90
2019-05-12T08:52:50.952Z,50.20
2019-05-12T08:55:22.788Z,49.40
2019-05-12T08:57:54.064Z,48.20
2019-05-12T09:00:39.599Z,48.90
2019-05-12T09:03:06.888Z,48.20
2019-05-12T09:05:38.467Z,47.20
2019-05-12T09:09:09.364Z,46.00
2019-05-12T09:11:38.758Z,46.80
2019-05-12T09:14:08.787Z,44.30
2019-05-12T09:17:07.219Z,44.20
2019-05-12T09:19:33.972Z,45.00
2019-05-12T09:25:18.400Z,43.50
2019-05-12T09:27:56.876Z,43.20
2019-05-12T09:30:40.044Z,44.20
2019-05-12T09:33:21.310Z,43.70
2019-05-12T09:35:49.464Z,45.40
2019-05-12T09:38:26.447Z,46.20
2019-05-12T09:41:05.214Z,45.80
2019-05-12T09:43:34.432Z,45.80
2019-05-12T09:46:04.307Z,46.20
2019-05-12T09:48:33.596Z,46.40
2019-05-12T09:51:05.816Z,46.50
2019-05-12T09:53:34.879Z,47.30
2019-05-12T09:56:05.821Z,44.90
2019-05-12T09:58:43.226Z,43.50
2019-05-12T10:01:14.214Z,44.00
2019-05-12T10:03:44.005Z,43.30
2019-05-12T10:06:17.931Z,43.30
2019-05-12T10:08:47.663Z,43.00
2019-05-12T10:11:20.713Z,43.00
2019-05-12T10:13:48.076Z,43.00
2019-05-12T10:16:17.574Z,41.40
2019-05-12T10:18:51.219Z,41.50
2019-05-12T10:21:17.913Z,39.60
2019-05-12T10:23:51.663Z,38.00
2019-05-12T10:26:17.913Z,39.50
2019-05-12T10:28:52.162Z,40.50
2019-05-12T10:31:18.913Z,41.70
2019-05-12T10:33:56.560Z,43.60
2019-05-12T10:36:26.257Z,44.10
2019-05-12T10:38:58.874Z,43.40
2019-05-12T10:41:30.627Z,41.20
2019-05-12T10:44:00.114Z,42.80
2019-05-12T10:46:32.794Z,38.70
2019-05-12T10:49:03.915Z,38.00
2019-05-12T10:51:34.367Z,36.70
2019-05-12T10:54:11.562Z,35.40
2019-05-12T10:56:35.499Z,37.40
2019-05-12T10:59:05.292Z,36.70
2019-05-12T11:01:38.594Z,36.70
2019-05-12T11:04:06.120Z,36.80
2019-05-12T11:06:39.645Z,36.30
2019-05-12T11:09:07.898Z,37.60
2019-05-12T11:11:42.286Z,35.60
2019-05-12T11:14:08.357Z,35.00
2019-05-12T11:16:37.995Z,34.50
2019-05-12T11:19:10.481Z,32.60
2019-05-12T11:21:39.146Z,30.60
2019-05-12T11:24:08.608Z,32.60
2019-05-12T11:26:38.427Z,33.00
2019-05-12T11:29:09.058Z,33.30
2019-05-12T11:31:39.991Z,33.60
2019-05-12T11:34:13.379Z,34.60
2019-05-12T11:36:45.214Z,35.70
2019-05-12T11:39:17.480Z,35.60
2019-05-12T11:41:46.851Z,36.10
2019-05-12T11:44:16.248Z,36.00
2019-05-12T11:46:56.715Z,34.40
2019-05-12T11:49:28.114Z,32.90
2019-05-12T11:52:01.137Z,31.60
2019-05-12T11:54:33.637Z,32.90
2019-05-12T11:57:05.177Z,34.40
2019-05-12T11:59:34.757Z,34.50
2019-05-12T12:02:07.809Z,34.50
2019-05-12T12:04:48.734Z,35.60
2019-05-12T12:07:19.792Z,34.70
2019-05-12T12:09:54.874Z,35.30
2019-05-12T12:12:20.578Z,36.00
2019-05-12T12:14:50.617Z,36.20
2019-05-12T12:17:24.109Z,36.50
2019-05-12T12:19:54.275Z,37.00
2019-05-12T12:22:28.183Z,36.60
2019-05-12T12:24:54.627Z,36.40
2019-05-12T12:27:24.140Z,36.40
2019-05-12T12:29:54.358Z,35.10
2019-05-12T12:32:24.383Z,35.40
2019-05-12T12:34:55.230Z,35.60
2019-05-12T12:37:25.714Z,33.90
2019-05-12T12:39:55.368Z,30.30
2019-05-12T12:42:25.195Z,30.40
2019-05-12T12:44:58.770Z,31.70
2019-05-12T12:47:28.138Z,31.90
2019-05-12T12:49:57.848Z,32.70
2019-05-12T12:52:27.251Z,33.90
2019-05-12T12:55:05.345Z,33.60
2019-05-12T12:57:46.555Z,34.30
2019-05-12T13:00:46.832Z,34.10
2019-05-12T13:03:06.776Z,33.00
2019-05-12T13:05:36.140Z,30.40
2019-05-12T13:08:05.551Z,30.10
2019-05-12T13:10:34.971Z,30.30
2019-05-12T13:13:04.741Z,30.70
2019-05-12T13:15:34.249Z,30.70
2019-05-12T13:18:03.792Z,31.20
2019-05-12T13:20:34.372Z,30.60
2019-05-12T13:23:04.233Z,27.70
2019-05-12T13:25:33.731Z,27.20
2019-05-12T13:28:10.152Z,28.20
2019-05-12T13:30:45.834Z,27.30
2019-05-12T13:33:08.972Z,27.30
2019-05-12T13:35:37.324Z,27.50
2019-05-12T13:38:07.846Z,28.50
2019-05-12T13:40:39.295Z,28.70
2019-05-12T13:43:09.188Z,28.70
2019-05-12T13:45:39.875Z,28.30
2019-05-12T13:48:09.728Z,27.80
2019-05-12T13:50:40.091Z,26.30
2019-05-12T13:53:10.294Z,26.70
2019-05-12T13:55:47.435Z,26.90
2019-05-12T13:58:10.860Z,27.50
2019-05-12T14:00:41.399Z,28.60
2019-05-12T14:03:11.220Z,28.50
2019-05-12T14:05:41.283Z,28.80
2019-05-12T14:08:11.714Z,28.60
2019-05-12T14:10:44.755Z,28.40
2019-05-12T14:13:14.037Z,28.60
2019-05-12T14:15:45.378Z,28.30
2019-05-12T14:18:20.448Z,27.80
2019-05-12T14:20:50.849Z,28.50
2019-05-12T14:23:16.896Z,27.90
2019-05-12T14:25:46.146Z,27.90
2019-05-12T14:28:16.704Z,28.00
2019-05-12T14:30:59.010Z,27.70
2019-05-12T14:33:29.835Z,28.10
2019-05-12T14:36:00.040Z,28.40
2019-05-12T14:38:29.962Z,26.70
2019-05-12T14:41:01.451Z,27.90
2019-05-12T14:43:29.957Z,27.50
2019-05-12T14:46:00.162Z,27.30
2019-05-12T14:48:33.643Z,27.70
2019-05-12T14:51:03.502Z,28.30
2019-05-12T14:53:38.158Z,28.10
2019-05-12T14:56:04.071Z,27.60
2019-05-12T14:58:33.923Z,28.00
2019-05-12T15:01:04.036Z,27.80
2019-05-12T15:03:34.206Z,28.10
2019-05-12T15:06:08.215Z,28.10
2019-05-12T15:08:43.631Z,28.10
2019-05-12T15:11:13.319Z,28.30
2019-05-12T15:13:43.700Z,27.60
2019-05-12T15:16:31.762Z,28.20
2019-05-12T15:19:03.375Z,27.80
2019-05-12T15:21:36.539Z,27.90
2019-05-12T15:24:09.210Z,27.60
2019-05-12T15:26:36.470Z,28.00
2019-05-12T15:29:13.200Z,29.20
2019-05-12T15:31:36.785Z,28.60
2019-05-12T15:34:06.006Z,28.90
2019-05-12T15:36:35.369Z,28.20
2019-05-12T15:39:07.476Z,28.00
2019-05-12T15:41:37.409Z,28.30
2019-05-12T15:44:06.729Z,28.00
2019-05-12T15:46:41.136Z,27.00
2019-05-12T15:49:08.914Z,27.10
2019-05-12T15:51:39.094Z,27.20
2019-05-12T15:54:11.432Z,28.00
2019-05-12T15:56:40.160Z,26.90
2019-05-12T15:59:10.385Z,26.90
2019-05-12T16:01:39.501Z,26.90
2019-05-12T16:04:12.022Z,26.70
2019-05-12T16:06:44.753Z,27.40
2019-05-12T16:09:13.257Z,27.00
2019-05-12T16:11:43.708Z,27.30
2019-05-12T16:14:13.526Z,27.20
2019-05-12T16:16:46.809Z,27.30
2019-05-12T16:19:14.774Z,27.00
2019-05-12T16:21:45.594Z,26.90
2019-05-12T16:24:15.742Z,27.20
2019-05-12T16:26:51.779Z,27.40
2019-05-12T16:29:16.146Z,27.70
2019-05-12T16:31:49.671Z,27.90
2019-05-12T16:34:16.304Z,28.00
2019-05-12T16:36:49.892Z,28.10
2019-05-12T16:39:16.668Z,27.90
2019-05-12T16:41:45.788Z,28.00
2019-05-12T16:44:21.185Z,28.40
2019-05-12T16:46:45.955Z,28.40
2019-05-12T16:49:15.151Z,28.30
2019-05-12T16:51:44.596Z,28.60
2019-05-12T16:54:13.960Z,28.50
2019-05-12T16:56:43.431Z,28.20
2019-05-12T16:59:17.013Z,27.50
2019-05-12T17:01:46.658Z,27.80
2019-05-12T17:04:18.700Z,27.20
2019-05-12T17:06:48.010Z,26.80
2019-05-12T17:09:17.284Z,26.10
2019-05-12T17:11:52.449Z,25.80
2019-05-12T17:14:17.786Z,25.50
2019-05-12T17:16:47.253Z,25.50
2019-05-12T17:19:16.966Z,25.70
2019-05-12T17:21:49.458Z,26.10
2019-05-12T17:24:17.535Z,26.80
2019-05-12T17:26:46.726Z,26.90
2019-05-12T17:29:15.865Z,26.90
2019-05-12T17:31:45.338Z,26.80
2019-05-12T17:34:16.276Z,27.30
2019-05-12T17:36:50.017Z,27.40
2019-05-12T17:39:17.530Z,27.50
2019-05-12T17:41:48.586Z,28.50
2019-05-12T17:44:17.745Z,29.10
2019-05-12T17:46:47.049Z,29.50
2019-05-12T17:49:25.381Z,30.00
2019-05-12T17:51:47.409Z,30.00
2019-05-12T17:54:21.536Z,30.50
2019-05-12T17:56:47.640Z,31.00
2019-05-12T17:59:23.513Z,31.70
2019-05-12T18:01:47.914Z,32.30
2019-05-12T18:04:20.520Z,33.00
2019-05-12T18:06:48.059Z,33.50
2019-05-12T18:09:20.042Z,33.90
2019-05-12T18:11:54.688Z,34.50
2019-05-12T18:14:19.281Z,34.90
2019-05-12T18:16:53.681Z,35.60
2019-05-12T18:19:19.765Z,36.40
2019-05-12T18:21:49.209Z,37.00
2019-05-12T18:24:18.528Z,37.30
2019-05-12T18:26:56.564Z,37.70
2019-05-12T18:29:18.771Z,38.00
2019-05-12T18:31:48.037Z,38.20
2019-05-12T18:34:19.839Z,37.80
2019-05-12T18:36:49.158Z,37.80
2019-05-12T18:39:19.200Z,37.70
2019-05-12T18:41:48.997Z,37.50
2019-05-12T18:44:26.229Z,37.00
2019-05-12T18:46:49.196Z,37.40
2019-05-12T18:49:20.941Z,37.30
2019-05-12T18:51:55.128Z,37.50
2019-05-12T18:54:24.311Z,37.80
2019-05-12T18:57:02.110Z,38.20
2019-05-12T18:59:28.026Z,38.40
2019-05-12T19:01:55.940Z,38.80
2019-05-12T19:04:25.283Z,39.10
2019-05-12T19:06:54.532Z,39.50
2019-05-12T19:09:23.956Z,39.70
2019-05-12T19:11:53.700Z,40.00
2019-05-12T19:14:34.761Z,40.20
2019-05-12T19:16:55.318Z,40.40
2019-05-12T19:19:24.522Z,40.80
2019-05-12T19:22:05.018Z,40.90
2019-05-12T19:24:25.097Z,41.20
2019-05-12T19:26:54.490Z,41.40
2019-05-12T19:29:24.442Z,41.60
2019-05-12T19:31:57.822Z,41.60
2019-05-12T19:34:26.233Z,41.60
2019-05-12T19:36:55.858Z,41.90
2019-05-12T19:39:25.509Z,41.90
2019-05-12T19:41:55.081Z,42.00
2019-05-12T19:44:26.488Z,41.90
2019-05-12T19:46:55.587Z,41.70
2019-05-12T19:49:25.901Z,41.90
2019-05-12T19:51:57.882Z,41.90
2019-05-12T19:54:30.202Z,42.00
2019-05-12T19:56:58.994Z,42.10
2019-05-12T19:59:34.159Z,42.10
2019-05-12T20:02:04.241Z,42.00
2019-05-12T20:04:42.120Z,42.10
2019-05-12T20:07:06.214Z,42.10
2019-05-12T20:09:36.394Z,42.30
2019-05-12T20:12:13.179Z,42.10
2019-05-12T20:14:38.859Z,42.20
2019-05-12T20:17:08.474Z,42.30
2019-05-12T20:19:38.198Z,42.20
2019-05-12T20:22:08.355Z,42.10
2019-05-12T20:24:36.889Z,42.30
2019-05-12T20:27:10.477Z,42.40
2019-05-12T20:29:38.383Z,42.00
2019-05-12T20:32:08.117Z,42.30
2019-05-12T20:34:48.030Z,42.70
2019-05-12T20:37:14.244Z,42.50
2019-05-12T20:39:51.141Z,42.10
2019-05-12T20:42:23.711Z,42.40
2019-05-12T20:45:05.276Z,42.20
2019-05-12T20:47:39.140Z,42.30
2019-05-12T20:50:09.040Z,42.40
2019-05-12T20:52:46.233Z,42.50
2019-05-12T20:55:18.728Z,42.70
2019-05-12T20:57:52.602Z,42.50
2019-05-12T21:00:20.026Z,42.70
2019-05-12T21:02:49.840Z,42.80
2019-05-12T21:05:20.337Z,43.10
2019-05-12T21:07:55.910Z,42.70
2019-05-12T21:10:34.076Z,42.80
2019-05-12T21:13:08.376Z,43.00
2019-05-12T21:15:42.719Z,42.70
2019-05-12T21:18:10.891Z,42.70
2019-05-12T21:20:40.670Z,42.90
2019-05-12T21:23:13.391Z,43.40
2019-05-12T21:25:52.353Z,43.60
2019-05-12T21:28:15.566Z,43.50
2019-05-12T21:30:48.205Z,43.60
2019-05-12T21:33:16.522Z,43.60
2019-05-12T21:35:54.515Z,43.70
2019-05-12T21:38:29.372Z,43.50
2019-05-12T21:41:16.278Z,43.60
2019-05-12T21:43:49.937Z,43.90
2019-05-12T21:46:20.164Z,43.70
2019-05-12T21:48:49.532Z,43.70
2019-05-12T21:51:20.064Z,43.50
2019-05-12T21:53:50.628Z,43.60
2019-05-12T21:56:25.341Z,43.60
2019-05-12T21:59:35.288Z,43.80
2019-05-12T22:02:06.157Z,44.10
2019-05-12T22:04:41.322Z,44.20
2019-05-12T22:07:18.146Z,44.10
2019-05-12T22:09:54.413Z,44.10
2019-05-12T22:12:28.604Z,44.30
2019-05-12T22:14:59.279Z,44.30
2019-05-12T22:17:50.696Z,44.50
2019-05-12T22:20:20.197Z,44.50
2019-05-12T22:22:50.493Z,44.50
2019-05-12T22:25:25.448Z,44.60
2019-05-12T22:27:59.157Z,45.00
2019-05-12T22:30:28.178Z,45.30
2019-05-12T22:32:59.394Z,45.70
2019-05-12T22:35:29.074Z,45.80
2019-05-12T22:37:58.338Z,45.80
2019-05-12T22:40:27.638Z,46.00
2019-05-12T22:43:01.320Z,45.90
2019-05-12T22:45:28.025Z,46.70
2019-05-12T22:47:59.075Z,46.30
2019-05-12T22:50:32.981Z,46.10
2019-05-12T22:52:59.739Z,46.30
2019-05-12T22:55:32.695Z,46.70
2019-05-12T22:58:00.728Z,46.90
2019-05-12T23:00:30.573Z,47.20
2019-05-12T23:03:09.347Z,47.40
2019-05-12T23:05:32.729Z,47.60
2019-05-12T23:08:06.298Z,47.70
2019-05-12T23:10:33.832Z,47.80
2019-05-12T23:13:05.100Z,47.80
2019-05-12T23:15:38.842Z,47.90
2019-05-12T23:18:06.807Z,48.10
2019-05-12T23:20:36.536Z,48.40
2019-05-12T23:23:09.146Z,48.40
2019-05-12T23:25:38.578Z,48.50
2019-05-12T23:28:10.355Z,49.00
2019-05-12T23:30:43.678Z,49.40
2019-05-12T23:33:10.677Z,49.20
2019-05-12T23:35:40.116Z,49.60
2019-05-12T23:38:10.463Z,49.80
2019-05-12T23:40:40.636Z,49.80
2019-05-12T23:43:10.410Z,49.80
2019-05-12T23:45:39.849Z,50.10
2019-05-12T23:48:09.158Z,50.20
2019-05-12T23:50:38.596Z,50.30
2019-05-12T23:53:08.165Z,50.60
2019-05-12T23:55:37.760Z,50.70
2019-05-12T23:58:07.235Z,50.50
